Time;durP1;ratioP1;P1;durP2;ratioP2;P2;SDS_P1;SDS_P2;PMS_P1;PMS_P2;Temp;Humidity;BMP_temperature;BMP_pressure;BME280_temperature;BME280_humidity;BME280_pressure;Samples;Min_cycle;Max_cycle;Signal;HPM_P1;HPM_P2
2021/12/15 00:00:47;;;;;;;93.63;38.72;;;;;;;;;;5010448;28;20206;-70
2021/12/15 00:03:15;;;;;;;90.90;38.72;;;;;;;;;;4999790;28;20190;-70
2021/12/15 00:05:41;;;;;;;95.10;38.80;;;;;;;;;;5016277;28;20281;-71
2021/12/15 00:08:11;;;;;;;87.35;38.95;;;;;;;;;;4996405;28;20218;-70
2021/12/15 00:10:37;;;;;;;82.43;37.30;;;;;;;;;;5005406;28;20619;-73
2021/12/15 00:13:03;;;;;;;95.20;40.22;;;;;;;;;;5000429;28;20202;-70
2021/12/15 00:15:29;;;;;;;87.60;38.05;;;;;;;;;;5002614;28;20199;-70
2021/12/15 00:17:55;;;;;;;83.00;37.75;;;;;;;;;;4998024;28;20198;-70
2021/12/15 00:20:22;;;;;;;89.93;39.55;;;;;;;;;;5008414;28;20254;-70
2021/12/15 00:22:52;;;;;;;86.85;37.55;;;;;;;;;;4999700;28;20286;-70
2021/12/15 00:25:18;;;;;;;88.57;37.45;;;;;;;;;;5008852;28;20300;-70
2021/12/15 00:27:43;;;;;;;86.88;38.67;;;;;;;;;;5000093;28;20256;-70
2021/12/15 00:30:10;;;;;;;92.88;39.42;;;;;;;;;;5002975;28;20194;-71
2021/12/15 00:32:35;;;;;;;99.30;40.40;;;;;;;;;;5002219;28;20191;-71
2021/12/15 00:35:01;;;;;;;89.88;36.60;;;;;;;;;;4999197;28;20655;-71
2021/12/15 00:37:26;;;;;;;92.57;38.58;;;;;;;;;;5008117;28;20293;-71
2021/12/15 00:39:52;;;;;;;98.28;39.63;;;;;;;;;;4998402;28;20215;-71
2021/12/15 00:42:17;;;;;;;97.95;40.90;;;;;;;;;;5004646;28;20619;-71
2021/12/15 00:44:44;;;;;;;98.75;40.20;;;;;;;;;;4996798;28;20293;-71
2021/12/15 00:47:10;;;;;;;97.55;39.25;;;;;;;;;;5013150;28;20182;-71
2021/12/15 00:49:36;;;;;;;106.32;41.03;;;;;;;;;;4995613;28;20651;-71
2021/12/15 00:52:02;;;;;;;99.72;40.70;;;;;;;;;;5005427;28;20187;-71
2021/12/15 00:54:28;;;;;;;90.93;39.78;;;;;;;;;;4998907;28;20237;-71
2021/12/15 00:56:54;;;;;;;93.72;40.42;;;;;;;;;;5007516;28;20183;-71
2021/12/15 00:59:21;;;;;;;94.85;39.28;;;;;;;;;;4993502;28;20203;-71
2021/12/15 01:01:47;;;;;;;96.63;40.75;;;;;;;;;;5005261;28;20233;-71
2021/12/15 01:04:15;;;;;;;100.78;41.20;;;;;;;;;;4995519;28;20212;-71
2021/12/15 01:06:43;;;;;;;102.03;41.90;;;;;;;;;;5013417;28;20191;-70
2021/12/15 01:09:17;;;;;;;99.88;41.03;;;;;;;;;;5006186;28;20183;-71
2021/12/15 01:12:09;;;;;;;102.40;41.38;;;;;;;;;;4999428;28;20201;-71
2021/12/15 01:20:28;;;;;;;103.10;40.90;;;;;;;;;;5002581;28;20426;-71
2021/12/15 01:22:56;;;;;;;106.57;41.85;;;;;;;;;;5008203;28;20562;-71
2021/12/15 01:25:43;;;;;;;101.32;40.75;;;;;;;;;;5001606;28;20186;-71
2021/12/15 01:28:10;;;;;;;98.35;39.40;;;;;;;;;;5001271;28;20187;-71
2021/12/15 01:30:42;;;;;;;102.28;40.60;;;;;;;;;;4993002;28;20269;-71
2021/12/15 01:33:08;;;;;;;96.15;40.50;;;;;;;;;;5003851;28;20647;-71
2021/12/15 01:35:38;;;;;;;100.72;41.28;;;;;;;;;;5003727;28;20218;-71
2021/12/15 01:38:05;;;;;;;97.72;39.30;;;;;;;;;;4996297;28;20191;-71
2021/12/15 01:40:35;;;;;;;93.65;39.25;;;;;;;;;;5003402;28;20206;-68
2021/12/15 01:43:12;;;;;;;97.25;39.03;;;;;;;;;;4997813;28;20244;-71
2021/12/15 01:48:22;;;;;;;94.38;38.97;;;;;;;;;;5000040;28;20204;-71
2021/12/15 01:50:50;;;;;;;99.10;40.03;;;;;;;;;;5005414;28;20171;-71
2021/12/15 01:53:16;;;;;;;94.05;38.10;;;;;;;;;;4992764;28;20225;-71
2021/12/15 01:55:41;;;;;;;102.72;41.30;;;;;;;;;;5002577;28;20230;-71
2021/12/15 01:58:07;;;;;;;96.05;39.28;;;;;;;;;;4997830;28;20179;-71
2021/12/15 02:00:46;;;;;;;100.63;39.55;;;;;;;;;;5005253;28;20213;-71
2021/12/15 02:03:12;;;;;;;96.65;39.83;;;;;;;;;;4994567;28;20189;-71
2021/12/15 02:05:38;;;;;;;103.75;40.38;;;;;;;;;;5009966;28;20663;-71
2021/12/15 02:08:05;;;;;;;105.47;40.03;;;;;;;;;;5011902;28;20191;-71
2021/12/15 02:10:35;;;;;;;105.80;39.58;;;;;;;;;;5011746;28;20277;-71
2021/12/15 02:13:03;;;;;;;107.07;41.25;;;;;;;;;;5003473;28;20206;-71
2021/12/15 02:15:35;;;;;;;103.90;40.67;;;;;;;;;;5014087;28;20178;-71
2021/12/15 02:18:03;;;;;;;102.95;40.08;;;;;;;;;;4999154;28;20191;-71
2021/12/15 02:20:39;;;;;;;95.95;40.30;;;;;;;;;;5009802;28;20665;-70
2021/12/15 02:23:07;;;;;;;104.40;42.45;;;;;;;;;;5008400;28;20289;-71
2021/12/15 02:25:32;;;;;;;105.55;41.15;;;;;;;;;;5009722;28;20272;-71
2021/12/15 02:27:58;;;;;;;112.10;40.80;;;;;;;;;;5009224;28;20646;-71
2021/12/15 02:30:42;;;;;;;104.30;40.95;;;;;;;;;;5001858;28;20206;-71
2021/12/15 02:33:46;;;;;;;102.60;39.53;;;;;;;;;;5011390;28;20167;-71
2021/12/15 02:38:45;;;;;;;99.53;39.35;;;;;;;;;;5007534;28;20234;-71
2021/12/15 02:41:20;;;;;;;101.55;40.90;;;;;;;;;;5003184;28;20655;-71
2021/12/15 02:43:53;;;;;;;91.75;39.90;;;;;;;;;;5011471;28;20587;-71
2021/12/15 02:46:20;;;;;;;98.10;39.38;;;;;;;;;;5001837;28;20657;-71
2021/12/15 02:48:46;;;;;;;94.40;40.63;;;;;;;;;;5010410;28;20642;-71
2021/12/15 02:51:12;;;;;;;101.57;42.13;;;;;;;;;;5000455;28;20186;-71
2021/12/15 02:53:38;;;;;;;94.90;40.35;;;;;;;;;;5013566;28;20177;-72
2021/12/15 02:56:04;;;;;;;99.75;40.92;;;;;;;;;;5001933;28;20214;-71
2021/12/15 02:58:34;;;;;;;105.35;41.95;;;;;;;;;;5011280;28;20209;-71
2021/12/15 03:01:06;;;;;;;102.60;41.90;;;;;;;;;;4997907;28;20214;-71
2021/12/15 03:06:25;;;;;;;104.80;42.15;;;;;;;;;;4996392;28;20202;-71
2021/12/15 03:08:59;;;;;;;105.28;41.25;;;;;;;;;;5000832;28;20206;-70
2021/12/15 03:16:57;;;;;;;107.82;43.50;;;;;;;;;;5005242;28;20537;-70
2021/12/15 03:19:23;;;;;;;111.38;44.38;;;;;;;;;;5007189;28;20207;-70
2021/12/15 03:21:49;;;;;;;100.55;40.45;;;;;;;;;;4998588;28;20624;-70
2021/12/15 03:24:20;;;;;;;105.47;42.90;;;;;;;;;;5006066;28;20195;-70
2021/12/15 03:26:55;;;;;;;117.10;45.25;;;;;;;;;;4996629;28;20191;-70
2021/12/15 03:35:05;;;;;;;115.30;45.42;;;;;;;;;;5002841;28;20194;-69
2021/12/15 03:37:37;;;;;;;110.00;43.83;;;;;;;;;;5000278;28;20643;-70
2021/12/15 03:40:05;;;;;;;103.90;43.22;;;;;;;;;;5007494;28;20705;-70
2021/12/15 03:42:41;;;;;;;113.43;44.80;;;;;;;;;;5001642;28;25612;-70
2021/12/15 03:45:11;;;;;;;118.68;44.38;;;;;;;;;;5006318;28;20185;-70
2021/12/15 03:47:39;;;;;;;121.22;44.88;;;;;;;;;;4999215;28;20186;-70
2021/12/15 03:50:07;;;;;;;114.18;45.08;;;;;;;;;;5010493;28;20206;-70
2021/12/15 03:52:32;;;;;;;116.22;44.60;;;;;;;;;;5004317;28;20198;-69
2021/12/15 03:54:59;;;;;;;111.72;44.10;;;;;;;;;;5003147;28;20298;-70
2021/12/15 03:57:25;;;;;;;122.88;46.22;;;;;;;;;;5007159;28;20186;-70
2021/12/15 03:59:51;;;;;;;115.88;45.90;;;;;;;;;;5010940;28;20959;-70
2021/12/15 04:02:18;;;;;;;119.47;46.60;;;;;;;;;;5008261;28;20276;-70
2021/12/15 04:04:46;;;;;;;124.30;46.08;;;;;;;;;;4995585;28;20264;-70
2021/12/15 04:07:13;;;;;;;119.15;45.15;;;;;;;;;;5006837;28;20294;-70
2021/12/15 04:09:40;;;;;;;118.97;46.10;;;;;;;;;;4995226;28;20187;-70
2021/12/15 04:12:06;;;;;;;127.43;46.60;;;;;;;;;;5007050;28;20317;-70
2021/12/15 04:14:41;;;;;;;120.82;45.97;;;;;;;;;;5006206;28;20202;-70
2021/12/15 04:17:17;;;;;;;118.90;45.35;;;;;;;;;;5001697;28;20171;-70
2021/12/15 04:19:43;;;;;;;120.70;46.28;;;;;;;;;;4997086;28;20214;-70
2021/12/15 04:22:09;;;;;;;126.72;47.75;;;;;;;;;;5002685;28;20187;-69
2021/12/15 04:24:35;;;;;;;116.50;45.70;;;;;;;;;;5001765;28;20356;-69
2021/12/15 04:27:00;;;;;;;117.75;46.38;;;;;;;;;;5004943;28;20614;-70
2021/12/15 04:29:28;;;;;;;121.85;46.60;;;;;;;;;;5008391;28;20270;-70
2021/12/15 04:32:00;;;;;;;120.35;45.78;;;;;;;;;;5000026;28;20187;-70
2021/12/15 04:34:26;;;;;;;124.38;46.30;;;;;;;;;;5005363;28;20652;-70
2021/12/15 04:36:53;;;;;;;125.10;46.30;;;;;;;;;;5003007;28;20190;-70
2021/12/15 04:39:23;;;;;;;118.18;44.47;;;;;;;;;;5005036;28;20202;-70
2021/12/15 04:41:51;;;;;;;114.47;44.88;;;;;;;;;;4998227;28;20270;-70
2021/12/15 04:44:19;;;;;;;116.30;46.65;;;;;;;;;;5002722;28;20191;-70
2021/12/15 04:46:50;;;;;;;118.03;45.92;;;;;;;;;;4998220;28;20225;-70
2021/12/15 04:49:18;;;;;;;115.47;45.28;;;;;;;;;;4995130;28;20179;-70
2021/12/15 04:51:47;;;;;;;123.30;45.80;;;;;;;;;;5016783;28;20309;-70
2021/12/15 04:54:12;;;;;;;115.00;44.30;;;;;;;;;;5006907;28;20229;-69
2021/12/15 04:56:38;;;;;;;119.80;46.50;;;;;;;;;;4998235;28;20190;-70
2021/12/15 04:59:04;;;;;;;119.82;45.35;;;;;;;;;;5007681;28;20289;-70
2021/12/15 05:01:29;;;;;;;120.00;44.73;;;;;;;;;;5002719;28;20354;-70
2021/12/15 05:03:54;;;;;;;114.72;46.30;;;;;;;;;;5005150;28;20218;-70
2021/12/15 05:06:21;;;;;;;112.88;43.88;;;;;;;;;;5008802;28;20190;-70
2021/12/15 05:08:46;;;;;;;110.10;43.25;;;;;;;;;;4997538;28;20241;-70
2021/12/15 05:11:12;;;;;;;114.60;44.20;;;;;;;;;;5003484;28;20237;-70
2021/12/15 05:13:38;;;;;;;116.82;43.78;;;;;;;;;;4998059;28;20186;-70
2021/12/15 05:16:05;;;;;;;105.50;42.88;;;;;;;;;;5009214;28;20599;-70
2021/12/15 05:18:31;;;;;;;110.47;42.70;;;;;;;;;;4997846;28;20178;-70
2021/12/15 05:20:58;;;;;;;101.85;43.05;;;;;;;;;;5005904;28;20291;-69
2021/12/15 05:23:29;;;;;;;105.82;43.08;;;;;;;;;;5002060;28;20334;-70
2021/12/15 05:25:56;;;;;;;109.03;44.08;;;;;;;;;;5003825;28;20187;-70
2021/12/15 05:28:22;;;;;;;111.07;44.80;;;;;;;;;;4998668;28;20189;-70
2021/12/15 05:30:47;;;;;;;107.50;42.63;;;;;;;;;;5006545;28;20191;-70
2021/12/15 05:33:13;;;;;;;100.88;42.88;;;;;;;;;;4998699;28;20187;-70
2021/12/15 05:35:38;;;;;;;102.05;42.97;;;;;;;;;;5007843;28;20190;-70
2021/12/15 05:38:05;;;;;;;101.75;41.63;;;;;;;;;;5013218;28;20202;-70
2021/12/15 05:40:32;;;;;;;108.93;43.10;;;;;;;;;;5001344;28;20280;-70
2021/12/15 05:42:59;;;;;;;97.00;41.80;;;;;;;;;;5015303;28;20550;-70
2021/12/15 05:45:31;;;;;;;96.75;40.65;;;;;;;;;;5004410;28;20184;-70
2021/12/15 05:47:57;;;;;;;101.35;41.35;;;;;;;;;;5025345;28;20225;-70
2021/12/15 05:50:26;;;;;;;101.43;41.80;;;;;;;;;;5003994;28;20258;-70
2021/12/15 05:52:51;;;;;;;102.65;42.03;;;;;;;;;;5012035;28;20186;-70
2021/12/15 05:55:18;;;;;;;102.80;42.10;;;;;;;;;;5000000;28;20268;-70
2021/12/15 05:57:44;;;;;;;102.40;41.30;;;;;;;;;;5009864;28;20186;-70
2021/12/15 06:00:14;;;;;;;98.00;40.90;;;;;;;;;;5003251;28;20260;-70
2021/12/15 06:02:40;;;;;;;104.17;40.43;;;;;;;;;;5022432;28;20265;-70
2021/12/15 06:05:06;;;;;;;100.03;41.60;;;;;;;;;;5002332;28;20282;-70
2021/12/15 06:07:31;;;;;;;99.28;41.45;;;;;;;;;;5013012;28;20618;-70
2021/12/15 06:09:57;;;;;;;103.82;43.65;;;;;;;;;;5002653;28;20189;-70
2021/12/15 06:12:23;;;;;;;101.40;40.30;;;;;;;;;;5013323;28;20190;-72
2021/12/15 06:14:48;;;;;;;106.88;42.03;;;;;;;;;;5012068;28;20209;-70
2021/12/15 06:17:14;;;;;;;98.05;38.60;;;;;;;;;;5004753;28;20182;-71
2021/12/15 06:19:39;;;;;;;96.93;41.30;;;;;;;;;;5006060;28;20252;-71
2021/12/15 06:22:06;;;;;;;107.10;40.63;;;;;;;;;;5005163;28;20222;-70
2021/12/15 06:24:36;;;;;;;102.77;41.20;;;;;;;;;;5005047;28;20204;-70
2021/12/15 06:27:09;;;;;;;102.70;42.33;;;;;;;;;;4998833;28;20235;-70
2021/12/15 06:29:34;;;;;;;102.50;40.73;;;;;;;;;;5017689;28;20189;-70
2021/12/15 06:31:59;;;;;;;99.60;41.30;;;;;;;;;;5001310;28;20191;-71
2021/12/15 06:34:25;;;;;;;110.63;43.50;;;;;;;;;;5014373;28;20175;-71
2021/12/15 06:36:53;;;;;;;103.88;40.83;;;;;;;;;;5003337;28;20194;-70
2021/12/15 06:39:18;;;;;;;108.45;42.42;;;;;;;;;;5028355;28;20203;-71
2021/12/15 06:41:44;;;;;;;108.30;41.75;;;;;;;;;;5003312;28;20645;-71
2021/12/15 06:44:11;;;;;;;102.30;42.75;;;;;;;;;;5006296;28;20179;-70
2021/12/15 07:00:12;;;;;;;107.93;42.60;;;;;;;;;;5003716;28;20213;-70
2021/12/15 07:02:38;;;;;;;105.63;41.92;;;;;;;;;;4995443;28;20187;-69
2021/12/15 07:05:07;;;;;;;105.00;42.05;;;;;;;;;;5008979;28;20199;-70
2021/12/15 07:07:34;;;;;;;109.03;40.83;;;;;;;;;;5016676;28;20626;-70
2021/12/15 07:09:59;;;;;;;114.55;44.20;;;;;;;;;;5000701;28;20194;-70
2021/12/15 07:12:24;;;;;;;107.53;41.03;;;;;;;;;;5020460;28;20469;-71
2021/12/15 07:14:50;;;;;;;107.45;41.35;;;;;;;;;;5000637;28;20554;-70
2021/12/15 07:17:21;;;;;;;103.03;40.08;;;;;;;;;;5017716;28;20190;-70
2021/12/15 07:22:43;;;;;;;112.43;43.58;;;;;;;;;;5009866;28;20191;-70
2021/12/15 07:25:12;;;;;;;113.65;42.65;;;;;;;;;;5004807;28;20292;-72
2021/12/15 07:27:38;;;;;;;110.60;41.25;;;;;;;;;;5015851;28;20273;-70
2021/12/15 07:30:04;;;;;;;108.07;42.30;;;;;;;;;;5008634;28;20352;-70
2021/12/15 07:32:30;;;;;;;109.82;43.63;;;;;;;;;;5011936;28;20624;-70
2021/12/15 07:34:55;;;;;;;110.45;41.22;;;;;;;;;;4996068;28;20278;-70
2021/12/15 07:37:20;;;;;;;108.05;41.88;;;;;;;;;;5010492;28;20218;-70
2021/12/15 07:39:54;;;;;;;114.60;42.13;;;;;;;;;;5000537;28;20209;-70
2021/12/15 07:42:30;;;;;;;110.03;43.60;;;;;;;;;;5010000;28;20569;-71
2021/12/15 07:44:55;;;;;;;112.55;43.13;;;;;;;;;;4996848;28;20252;-70
2021/12/15 07:47:21;;;;;;;114.82;43.05;;;;;;;;;;5001717;28;20190;-71
2021/12/15 07:49:46;;;;;;;109.90;42.10;;;;;;;;;;5007466;28;20181;-71
2021/12/15 07:52:12;;;;;;;117.00;44.42;;;;;;;;;;4996948;28;20429;-71
2021/12/15 07:54:37;;;;;;;119.43;43.80;;;;;;;;;;5007424;28;20270;-71
2021/12/15 07:57:07;;;;;;;114.77;43.87;;;;;;;;;;5000654;28;20210;-71
2021/12/15 07:59:33;;;;;;;117.75;43.88;;;;;;;;;;5016109;28;20202;-71
2021/12/15 08:01:59;;;;;;;110.78;43.53;;;;;;;;;;4999897;28;20202;-71
2021/12/15 08:04:24;;;;;;;121.25;43.17;;;;;;;;;;5004169;28;20186;-71
2021/12/15 08:06:50;;;;;;;122.43;42.95;;;;;;;;;;5004079;28;20571;-73
2021/12/15 08:09:15;;;;;;;123.15;43.42;;;;;;;;;;5006068;28;20317;-70
2021/12/15 08:11:42;;;;;;;117.45;41.97;;;;;;;;;;5001108;28;20236;-70
2021/12/15 08:14:07;;;;;;;129.13;45.72;;;;;;;;;;5009084;28;20199;-71
2021/12/15 08:16:33;;;;;;;119.72;43.65;;;;;;;;;;5004285;28;20539;-70
2021/12/15 08:18:59;;;;;;;129.85;43.97;;;;;;;;;;5012236;28;20275;-71
2021/12/15 08:21:24;;;;;;;117.85;43.60;;;;;;;;;;5000626;28;20280;-70
2021/12/15 08:23:50;;;;;;;128.85;44.28;;;;;;;;;;5009258;28;20193;-70
2021/12/15 08:26:15;;;;;;;128.57;46.55;;;;;;;;;;5006953;28;20305;-70
2021/12/15 08:28:41;;;;;;;121.72;43.42;;;;;;;;;;5001756;28;20187;-71
2021/12/15 08:31:07;;;;;;;130.27;44.90;;;;;;;;;;5005373;28;20206;-70
2021/12/15 08:33:33;;;;;;;118.10;43.35;;;;;;;;;;4998209;28;20245;-70
2021/12/15 08:36:01;;;;;;;124.82;44.38;;;;;;;;;;5013434;28;20189;-71
2021/12/15 08:38:29;;;;;;;127.65;43.70;;;;;;;;;;5005137;28;20186;-70
2021/12/15 08:40:56;;;;;;;123.75;44.58;;;;;;;;;;5008360;28;20291;-70
2021/12/15 08:43:23;;;;;;;129.30;45.05;;;;;;;;;;5002495;28;20189;-69
2021/12/15 08:45:53;;;;;;;123.63;44.45;;;;;;;;;;5007996;28;20235;-70
2021/12/15 08:48:19;;;;;;;131.00;46.22;;;;;;;;;;5000019;28;20206;-71
2021/12/15 08:50:45;;;;;;;122.85;44.08;;;;;;;;;;5011428;28;20661;-71
2021/12/15 08:53:11;;;;;;;133.32;44.30;;;;;;;;;;5002689;28;20198;-71
2021/12/15 08:55:40;;;;;;;132.05;45.33;;;;;;;;;;5003317;28;20261;-71
2021/12/15 08:58:07;;;;;;;124.70;42.75;;;;;;;;;;5007986;28;20175;-70
2021/12/15 09:00:33;;;;;;;110.15;41.35;;;;;;;;;;5001100;28;20197;-70
2021/12/15 09:02:58;;;;;;;128.50;45.40;;;;;;;;;;5006035;28;20263;-70
2021/12/15 09:05:24;;;;;;;112.57;42.88;;;;;;;;;;4996273;28;20286;-71
2021/12/15 09:07:54;;;;;;;114.20;44.08;;;;;;;;;;5004937;28;20179;-70
2021/12/15 09:10:21;;;;;;;112.03;42.38;;;;;;;;;;4996229;28;20289;-70
2021/12/15 09:12:47;;;;;;;119.20;44.30;;;;;;;;;;5006107;28;20198;-70
2021/12/15 09:15:13;;;;;;;109.00;40.75;;;;;;;;;;5003484;28;20243;-70
2021/12/15 09:17:39;;;;;;;123.40;44.00;;;;;;;;;;5013245;28;20252;-70
2021/12/15 09:20:07;;;;;;;118.32;42.63;;;;;;;;;;5005367;28;20238;-70
2021/12/15 09:22:33;;;;;;;123.07;43.63;;;;;;;;;;5009418;28;20661;-71
2021/12/15 09:24:59;;;;;;;120.00;41.92;;;;;;;;;;4999757;28;20220;-70
2021/12/15 09:27:24;;;;;;;117.32;41.58;;;;;;;;;;5006564;28;20178;-70
2021/12/15 09:29:49;;;;;;;116.47;40.75;;;;;;;;;;5007077;28;20241;-70
2021/12/15 09:32:15;;;;;;;117.68;42.78;;;;;;;;;;5000104;28;20581;-73
2021/12/15 09:34:40;;;;;;;117.80;42.92;;;;;;;;;;5015791;28;20195;-70
2021/12/15 09:37:06;;;;;;;123.00;43.08;;;;;;;;;;4997084;28;20736;-70
2021/12/15 09:39:31;;;;;;;115.75;41.03;;;;;;;;;;5009630;28;20297;-71
2021/12/15 09:41:59;;;;;;;113.22;41.17;;;;;;;;;;4997922;28;20186;-70
2021/12/15 09:44:26;;;;;;;121.95;42.38;;;;;;;;;;5003429;28;20202;-71
2021/12/15 10:03:14;;;;;;;112.72;37.60;;;;;;;;;;5004414;28;20296;-70
2021/12/15 10:05:58;;;;;;;116.90;40.90;;;;;;;;;;5005932;28;20257;-70
2021/12/15 10:19:34;;;;;;;104.60;37.10;;;;;;;;;;5004024;28;20214;-70
2021/12/15 10:22:28;;;;;;;107.30;37.20;;;;;;;;;;5011607;28;20222;-70
2021/12/15 10:25:06;;;;;;;116.38;38.45;;;;;;;;;;5002341;28;20191;-70
2021/12/15 10:28:05;;;;;;;119.25;38.55;;;;;;;;;;5011209;28;20226;-69
2021/12/15 10:30:38;;;;;;;104.43;38.35;;;;;;;;;;4984682;28;20204;-70
2021/12/15 10:33:08;;;;;;;108.07;36.88;;;;;;;;;;5014162;28;20491;-70
2021/12/15 10:35:38;;;;;;;103.65;35.33;;;;;;;;;;5003531;28;20209;-70
2021/12/15 10:38:27;;;;;;;105.95;35.97;;;;;;;;;;5013428;28;20188;-69
2021/12/15 10:41:16;;;;;;;100.20;35.45;;;;;;;;;;5002466;28;20827;-70
2021/12/15 10:43:54;;;;;;;101.47;37.78;;;;;;;;;;5011226;28;20177;-70
2021/12/15 10:46:21;;;;;;;104.78;35.85;;;;;;;;;;5009507;28;20242;-70
2021/12/15 10:48:48;;;;;;;107.38;36.67;;;;;;;;;;5018016;28;20222;-70
2021/12/15 10:51:41;;;;;;;101.28;34.75;;;;;;;;;;5002745;28;20590;-70
2021/12/15 10:54:24;;;;;;;100.43;35.97;;;;;;;;;;5010705;28;20187;-70
2021/12/15 10:56:56;;;;;;;93.13;35.17;;;;;;;;;;5005801;28;20618;-70
2021/12/15 10:59:24;;;;;;;87.95;34.08;;;;;;;;;;5013173;28;20253;-70
2021/12/15 11:01:54;;;;;;;93.45;36.30;;;;;;;;;;5000114;28;20272;-70
2021/12/15 11:04:44;;;;;;;90.68;33.83;;;;;;;;;;5011451;28;20689;-70
2021/12/15 11:07:15;;;;;;;93.72;34.83;;;;;;;;;;5008335;28;20190;-70
2021/12/15 11:09:56;;;;;;;94.75;35.75;;;;;;;;;;5008392;28;20194;-70
2021/12/15 11:12:32;;;;;;;94.75;34.97;;;;;;;;;;5004484;28;20194;-71
2021/12/15 11:15:07;;;;;;;95.47;34.95;;;;;;;;;;5010370;28;20288;-70
2021/12/15 11:17:41;;;;;;;91.15;34.00;;;;;;;;;;5010356;28;20192;-70
2021/12/15 11:20:15;;;;;;;87.75;33.63;;;;;;;;;;5011785;28;20711;-70
2021/12/15 11:22:44;;;;;;;85.18;33.80;;;;;;;;;;5001337;28;20199;-70
2021/12/15 11:25:32;;;;;;;83.95;33.28;;;;;;;;;;5006871;28;20179;-71
2021/12/15 11:28:00;;;;;;;81.65;33.05;;;;;;;;;;4997394;28;20214;-70
2021/12/15 11:30:32;;;;;;;83.50;32.28;;;;;;;;;;5010237;28;20221;-70
2021/12/15 11:33:01;;;;;;;84.75;33.17;;;;;;;;;;4999210;28;20229;-70
2021/12/15 11:35:38;;;;;;;82.65;32.63;;;;;;;;;;5006051;28;20175;-70
2021/12/15 11:38:10;;;;;;;80.47;32.63;;;;;;;;;;5000541;28;20504;-70
2021/12/15 11:40:48;;;;;;;81.95;33.97;;;;;;;;;;5006996;28;20248;-70
2021/12/15 11:43:26;;;;;;;79.50;32.25;;;;;;;;;;5002043;28;20574;-70
2021/12/15 11:45:52;;;;;;;83.80;32.65;;;;;;;;;;5012413;28;20241;-70
2021/12/15 11:48:22;;;;;;;77.18;31.92;;;;;;;;;;4998795;28;20577;-70
2021/12/15 11:50:49;;;;;;;81.63;33.00;;;;;;;;;;5012498;28;20183;-70
2021/12/15 11:53:29;;;;;;;83.53;32.67;;;;;;;;;;5007139;28;20214;-71
2021/12/15 11:56:10;;;;;;;76.60;30.55;;;;;;;;;;5015285;28;20212;-71
2021/12/15 11:58:35;;;;;;;77.53;32.13;;;;;;;;;;5002769;28;20305;-71
2021/12/15 12:01:01;;;;;;;77.88;32.45;;;;;;;;;;5008517;28;20678;-71
2021/12/15 12:03:26;;;;;;;75.60;32.42;;;;;;;;;;4998103;28;21163;-71
2021/12/15 12:05:52;;;;;;;79.60;32.53;;;;;;;;;;5009542;28;20213;-71
2021/12/15 12:08:17;;;;;;;71.78;29.42;;;;;;;;;;4998948;28;20179;-71
2021/12/15 12:10:48;;;;;;;77.15;34.25;;;;;;;;;;5005231;28;20195;-71
2021/12/15 12:13:23;;;;;;;72.75;31.48;;;;;;;;;;5012404;28;20182;-71
2021/12/15 12:15:56;;;;;;;69.50;30.85;;;;;;;;;;4999593;28;20194;-72
2021/12/15 12:18:24;;;;;;;66.95;30.15;;;;;;;;;;5018639;28;20190;-71
2021/12/15 12:20:54;;;;;;;69.78;31.88;;;;;;;;;;4996858;28;20246;-72
2021/12/15 12:23:22;;;;;;;65.70;30.55;;;;;;;;;;5006441;28;20186;-71
2021/12/15 12:25:53;;;;;;;64.35;30.10;;;;;;;;;;5001950;28;20213;-71
2021/12/15 12:28:21;;;;;;;66.13;30.27;;;;;;;;;;5009260;28;20217;-71
2021/12/15 12:31:00;;;;;;;71.85;29.05;;;;;;;;;;5001985;28;20229;-70
2021/12/15 12:33:28;;;;;;;66.18;30.92;;;;;;;;;;5008237;28;20741;-70
2021/12/15 12:36:06;;;;;;;71.93;30.23;;;;;;;;;;4998394;28;20486;-70
2021/12/15 12:38:34;;;;;;;72.15;31.23;;;;;;;;;;5005723;28;20677;-70
2021/12/15 12:41:01;;;;;;;67.28;30.33;;;;;;;;;;5002077;28;20230;-70
2021/12/15 12:43:35;;;;;;;71.05;31.25;;;;;;;;;;5010983;28;20300;-70
2021/12/15 12:46:10;;;;;;;70.45;31.13;;;;;;;;;;4998878;28;20193;-70
2021/12/15 12:48:50;;;;;;;64.50;28.65;;;;;;;;;;5007262;28;20737;-71
2021/12/15 12:59:46;;;;;;;60.97;29.55;;;;;;;;;;5006175;28;20700;-70
2021/12/15 13:02:32;;;;;;;58.15;28.55;;;;;;;;;;5000135;28;20545;-71
2021/12/15 13:04:58;;;;;;;64.88;28.48;;;;;;;;;;5008230;28;20190;-71
2021/12/15 13:07:50;;;;;;;63.38;29.35;;;;;;;;;;5001154;28;20191;-71
2021/12/15 13:10:17;;;;;;;60.53;27.98;;;;;;;;;;5007944;28;20202;-70
2021/12/15 13:12:47;;;;;;;58.55;29.00;;;;;;;;;;5000065;28;20198;-70
2021/12/15 13:15:21;;;;;;;60.03;28.15;;;;;;;;;;5007865;28;20557;-70
2021/12/15 13:18:02;;;;;;;57.17;28.85;;;;;;;;;;5001102;28;20521;-70
2021/12/15 13:20:31;;;;;;;56.85;28.92;;;;;;;;;;5001503;28;20297;-70
2021/12/15 13:23:17;;;;;;;55.97;28.45;;;;;;;;;;4997987;28;20641;-70
2021/12/15 13:28:44;;;;;;;57.28;28.60;;;;;;;;;;5004591;28;20237;-70
2021/12/15 13:31:10;;;;;;;52.08;27.05;;;;;;;;;;5005032;28;20178;-70
2021/12/15 13:33:37;;;;;;;57.75;28.27;;;;;;;;;;4998508;28;20479;-71
2021/12/15 13:36:06;;;;;;;53.13;26.17;;;;;;;;;;5007999;28;20658;-71
2021/12/15 13:38:46;;;;;;;47.72;26.48;;;;;;;;;;4999411;28;20182;-71
2021/12/15 13:41:20;;;;;;;48.38;26.67;;;;;;;;;;5010318;28;20204;-70
2021/12/15 13:44:01;;;;;;;44.80;25.23;;;;;;;;;;5000260;28;20720;-71
2021/12/15 13:46:47;;;;;;;44.47;24.48;;;;;;;;;;5005888;28;20185;-71
2021/12/15 13:49:28;;;;;;;42.33;23.38;;;;;;;;;;4996623;28;20214;-71
2021/12/15 13:52:02;;;;;;;42.50;23.60;;;;;;;;;;5026251;28;20193;-71
2021/12/15 13:54:33;;;;;;;39.40;23.40;;;;;;;;;;4999996;28;20213;-71
2021/12/15 13:57:11;;;;;;;39.13;22.23;;;;;;;;;;5007241;28;20190;-71
2021/12/15 14:00:01;;;;;;;35.70;21.80;;;;;;;;;;5003242;28;20202;-71
2021/12/15 14:02:47;;;;;;;37.90;20.33;;;;;;;;;;5015856;28;20194;-71
2021/12/15 14:05:15;;;;;;;38.42;20.42;;;;;;;;;;4998490;28;20190;-71
2021/12/15 14:07:49;;;;;;;34.50;20.42;;;;;;;;;;5016844;28;20213;-71
2021/12/15 14:10:15;;;;;;;31.60;18.55;;;;;;;;;;5007258;28;20205;-71
2021/12/15 14:12:49;;;;;;;31.13;17.50;;;;;;;;;;5015413;28;20194;-71
2021/12/15 14:15:36;;;;;;;32.72;17.65;;;;;;;;;;5014477;28;20586;-71
2021/12/15 14:18:23;;;;;;;26.20;16.15;;;;;;;;;;5015667;28;20628;-71
2021/12/15 14:21:03;;;;;;;21.80;13.45;;;;;;;;;;5006037;28;20222;-70
2021/12/15 14:23:38;;;;;;;22.25;13.82;;;;;;;;;;5014047;28;20191;-71
2021/12/15 14:26:08;;;;;;;21.50;12.05;;;;;;;;;;5007903;28;20192;-71
2021/12/15 14:28:40;;;;;;;21.10;11.93;;;;;;;;;;5016906;28;20229;-70
2021/12/15 14:31:16;;;;;;;19.40;10.27;;;;;;;;;;5003789;28;20705;-70
2021/12/15 14:33:48;;;;;;;21.33;11.05;;;;;;;;;;5022325;28;20248;-71
2021/12/15 14:36:21;;;;;;;19.52;10.30;;;;;;;;;;5004834;28;20652;-71
2021/12/15 14:38:49;;;;;;;21.08;10.02;;;;;;;;;;5020463;28;20189;-71
2021/12/15 14:41:41;;;;;;;15.95;8.93;;;;;;;;;;5004380;28;20601;-71
2021/12/15 14:44:19;;;;;;;15.82;8.57;;;;;;;;;;5019848;28;20278;-71
2021/12/15 14:47:07;;;;;;;15.50;8.20;;;;;;;;;;5008173;28;20289;-70
2021/12/15 14:49:34;;;;;;;15.95;8.48;;;;;;;;;;5014378;28;20544;-70
2021/12/15 14:52:06;;;;;;;14.10;7.63;;;;;;;;;;4312453;28;10000812;-71
2021/12/15 14:54:32;;;;;;;18.80;7.00;;;;;;;;;;5006267;28;20592;-71
2021/12/15 14:57:23;;;;;;;11.65;7.13;;;;;;;;;;4997518;28;20175;-71
2021/12/15 14:59:59;;;;;;;12.68;6.90;;;;;;;;;;5005047;28;20355;-70
2021/12/15 15:02:29;;;;;;;18.77;6.80;;;;;;;;;;4995858;28;20281;-71
2021/12/15 15:04:58;;;;;;;14.52;6.50;;;;;;;;;;5006431;28;20262;-70
2021/12/15 15:07:28;;;;;;;13.63;7.13;;;;;;;;;;5005689;28;20191;-70
2021/12/15 15:09:55;;;;;;;12.48;6.70;;;;;;;;;;5006322;28;20186;-70
2021/12/15 15:12:31;;;;;;;11.75;6.53;;;;;;;;;;5002917;28;20646;-70
2021/12/15 15:14:59;;;;;;;12.57;6.80;;;;;;;;;;5001351;28;20272;-73
2021/12/15 15:17:32;;;;;;;16.17;6.82;;;;;;;;;;5007665;28;20527;-70
2021/12/15 15:20:11;;;;;;;13.30;6.40;;;;;;;;;;5001070;28;20218;-70
2021/12/15 15:22:37;;;;;;;14.48;6.32;;;;;;;;;;5015677;28;20283;-70
2021/12/15 15:25:06;;;;;;;11.70;5.90;;;;;;;;;;5009248;28;20220;-70
2021/12/15 15:27:31;;;;;;;9.48;4.82;;;;;;;;;;5005324;28;20236;-71
2021/12/15 15:30:02;;;;;;;11.50;4.70;;;;;;;;;;4996936;28;20217;-70
2021/12/15 15:32:32;;;;;;;7.35;3.78;;;;;;;;;;5009683;28;20277;-70
2021/12/15 15:35:12;;;;;;;9.38;3.75;;;;;;;;;;5002163;28;20199;-71
2021/12/15 15:37:37;;;;;;;9.10;3.85;;;;;;;;;;5003685;28;20204;-71
2021/12/15 15:40:09;;;;;;;10.15;4.00;;;;;;;;;;5006727;28;20206;-71
2021/12/15 15:42:35;;;;;;;11.10;3.88;;;;;;;;;;5006626;28;20217;-70
2021/12/15 15:45:01;;;;;;;8.13;3.40;;;;;;;;;;5004908;28;20630;-71
2021/12/15 15:47:26;;;;;;;7.47;3.90;;;;;;;;;;5010106;28;20229;-70